createdAt,value
2018-10-02T00:03:02.667Z,100.00
2018-10-02T00:06:07.802Z,100.00
2018-10-02T00:09:13.416Z,100.00
2018-10-02T00:12:23.185Z,100.00
2018-10-02T00:15:27.468Z,100.00
2018-10-02T00:18:31.740Z,100.00
2018-10-02T00:21:36.020Z,100.00
2018-10-02T00:24:40.307Z,100.00
2018-10-02T00:27:44.611Z,100.00
2018-10-02T00:30:48.887Z,100.00
2018-10-02T00:33:53.174Z,100.00
2018-10-02T00:36:57.445Z,100.00
2018-10-02T00:40:01.740Z,100.00
2018-10-02T00:43:06.061Z,100.00
2018-10-02T00:46:10.347Z,100.00
2018-10-02T00:49:14.683Z,100.00
2018-10-02T00:52:18.947Z,100.00
2018-10-02T00:55:23.225Z,100.00
2018-10-02T00:58:27.583Z,100.00
2018-10-02T01:01:31.861Z,100.00
2018-10-02T01:04:36.209Z,100.00
2018-10-02T01:07:40.499Z,100.00
2018-10-02T01:10:44.780Z,100.00
2018-10-02T01:13:49.128Z,100.00
2018-10-02T01:16:53.469Z,100.00
2018-10-02T01:19:57.756Z,100.00
2018-10-02T01:23:02.095Z,100.00
2018-10-02T01:26:06.483Z,100.00
2018-10-02T01:29:10.780Z,100.00
2018-10-02T01:32:15.126Z,100.00
2018-10-02T01:35:19.539Z,100.00
2018-10-02T01:38:23.891Z,100.00
2018-10-02T01:41:28.956Z,100.00
2018-10-02T01:44:33.677Z,100.00
2018-10-02T01:47:38.001Z,100.00
2018-10-02T01:50:42.509Z,100.00
2018-10-02T01:53:46.795Z,100.00
2018-10-02T01:56:51.144Z,100.00
2018-10-02T01:59:55.508Z,100.00
2018-10-02T02:02:59.884Z,100.00
2018-10-02T02:06:04.207Z,100.00
2018-10-02T02:09:08.716Z,100.00
2018-10-02T02:12:13.028Z,100.00
2018-10-02T02:15:17.354Z,100.00
2018-10-02T02:18:21.637Z,100.00
2018-10-02T02:21:25.953Z,100.00
2018-10-02T02:24:30.391Z,100.00
2018-10-02T02:27:34.683Z,100.00
2018-10-02T02:30:38.960Z,100.00
2018-10-02T02:33:43.366Z,100.00
2018-10-02T02:36:48.907Z,100.00
2018-10-02T02:39:53.164Z,100.00
2018-10-02T02:42:57.464Z,100.00
2018-10-02T02:46:02.816Z,100.00
2018-10-02T02:49:12.361Z,100.00
2018-10-02T02:52:18.483Z,100.00
2018-10-02T02:55:22.784Z,100.00
2018-10-02T02:58:27.128Z,100.00
2018-10-02T03:01:31.437Z,100.00
2018-10-02T03:04:35.803Z,100.00
2018-10-02T03:07:40.123Z,100.00
2018-10-02T03:10:45.020Z,100.00
2018-10-02T03:13:49.481Z,100.00
2018-10-02T03:16:53.823Z,100.00
2018-10-02T03:19:58.380Z,100.00
2018-10-02T03:23:02.695Z,100.00
2018-10-02T03:26:07.274Z,100.00
2018-10-02T03:29:12.296Z,100.00
2018-10-02T03:32:16.624Z,100.00
2018-10-02T03:35:22.072Z,100.00
2018-10-02T03:38:26.759Z,100.00
2018-10-02T03:41:31.066Z,100.00
2018-10-02T03:44:35.364Z,100.00
2018-10-02T03:47:39.730Z,100.00
2018-10-02T03:50:44.635Z,100.00
2018-10-02T03:53:49.111Z,100.00
2018-10-02T03:56:53.416Z,100.00
2018-10-02T03:59:57.911Z,100.00
2018-10-02T04:03:02.312Z,100.00
2018-10-02T04:06:06.924Z,100.00
2018-10-02T04:09:12.059Z,100.00
2018-10-02T04:12:16.356Z,100.00
2018-10-02T04:15:20.663Z,100.00
2018-10-02T04:18:25.000Z,100.00
2018-10-02T04:21:33.841Z,100.00
2018-10-02T04:24:38.382Z,100.00
2018-10-02T04:27:45.761Z,100.00
2018-10-02T04:30:50.059Z,100.00
2018-10-02T04:33:54.853Z,100.00
2018-10-02T04:36:59.185Z,100.00
2018-10-02T04:40:03.517Z,100.00
2018-10-02T04:43:07.896Z,100.00
2018-10-02T04:46:12.235Z,100.00
2018-10-02T04:49:16.638Z,100.00
2018-10-02T04:52:21.293Z,100.00
2018-10-02T04:55:26.032Z,100.00
2018-10-02T04:58:30.324Z,100.00
2018-10-02T05:01:35.207Z,100.00
2018-10-02T05:04:39.557Z,100.00
2018-10-02T05:07:43.872Z,100.00
2018-10-02T05:10:48.184Z,100.00
2018-10-02T05:13:53.340Z,100.00
2018-10-02T05:16:57.877Z,100.00
2018-10-02T05:20:02.192Z,100.00
2018-10-02T05:23:06.626Z,100.00
2018-10-02T05:26:11.606Z,100.00
2018-10-02T05:29:15.996Z,100.00
2018-10-02T05:32:20.573Z,100.00
2018-10-02T05:35:24.917Z,100.00
2018-10-02T05:38:29.298Z,100.00
2018-10-02T05:41:33.747Z,100.00
2018-10-02T05:44:38.090Z,100.00
2018-10-02T05:47:42.541Z,100.00
2018-10-02T05:50:46.955Z,100.00
2018-10-02T05:53:51.274Z,100.00
2018-10-02T05:56:55.625Z,100.00
2018-10-02T05:59:59.951Z,100.00
2018-10-02T06:03:04.305Z,100.00
2018-10-02T06:06:08.614Z,100.00
2018-10-02T06:09:14.225Z,100.00
2018-10-02T06:12:18.652Z,100.00
2018-10-02T06:15:22.994Z,100.00
2018-10-02T06:18:27.424Z,100.00
2018-10-02T06:21:32.015Z,100.00
2018-10-02T06:24:37.047Z,99.61
2018-10-02T06:27:41.345Z,98.89
2018-10-02T06:30:45.707Z,98.26
2018-10-02T06:33:50.109Z,98.48
2018-10-02T06:36:57.542Z,97.44
2018-10-02T06:40:01.903Z,97.82
2018-10-02T06:43:06.281Z,97.97
2018-10-02T06:46:10.633Z,97.29
2018-10-02T06:49:15.873Z,96.49
2018-10-02T06:52:20.426Z,96.43
2018-10-02T06:55:24.612Z,96.47
2018-10-02T06:58:28.949Z,96.53
2018-10-02T07:01:33.261Z,97.84
2018-10-02T07:04:37.564Z,97.99
2018-10-02T07:07:42.061Z,98.29
2018-10-02T07:10:46.424Z,98.64
2018-10-02T07:13:50.833Z,98.23
2018-10-02T07:16:55.558Z,98.23
2018-10-02T07:20:00.015Z,98.55
2018-10-02T07:23:04.340Z,98.16
2018-10-02T07:26:09.224Z,96.31
2018-10-02T07:29:13.660Z,96.67
2018-10-02T07:32:18.244Z,96.26
2018-10-02T07:35:22.621Z,95.06
2018-10-02T07:38:27.074Z,94.62
2018-10-02T07:41:31.762Z,91.88
2018-10-02T07:44:36.219Z,90.66
2018-10-02T07:47:40.613Z,90.17
2018-10-02T07:50:45.329Z,87.32
2018-10-02T07:53:49.678Z,86.32
2018-10-02T07:56:54.109Z,89.83
2018-10-02T07:59:58.620Z,90.07
2018-10-02T08:03:02.983Z,90.94
2018-10-02T08:06:07.662Z,93.18
2018-10-02T08:09:12.867Z,91.61
2018-10-02T08:12:17.316Z,93.87
2018-10-02T08:15:21.759Z,89.25
2018-10-02T08:18:26.087Z,91.04
2018-10-02T08:21:30.471Z,92.80
2018-10-02T08:24:34.936Z,88.44
2018-10-02T08:27:40.182Z,87.83
2018-10-02T08:30:45.577Z,88.48
2018-10-02T08:33:50.116Z,90.66
2018-10-02T08:36:54.571Z,85.81
2018-10-02T08:39:59.017Z,85.10
2018-10-02T08:43:03.568Z,85.57
2018-10-02T08:46:08.238Z,83.64
2018-10-02T08:49:12.605Z,83.17
2018-10-02T08:52:17.103Z,80.83
2018-10-02T08:55:21.458Z,81.29
2018-10-02T08:58:26.596Z,79.94
2018-10-02T09:01:31.156Z,79.66
2018-10-02T09:04:35.709Z,76.04
2018-10-02T09:07:40.216Z,74.44
2018-10-02T09:10:44.824Z,73.29
2018-10-02T09:13:49.154Z,70.35
2018-10-02T09:16:54.105Z,72.25
2018-10-02T09:19:58.424Z,71.19
2018-10-02T09:23:03.690Z,74.24
2018-10-02T09:26:07.993Z,72.22
2018-10-02T09:29:12.300Z,73.30
2018-10-02T09:32:22.516Z,73.43
2018-10-02T09:35:32.275Z,76.98
2018-10-02T09:38:41.788Z,75.78
2018-10-02T09:41:51.672Z,76.90
2018-10-02T09:44:56.000Z,73.80
2018-10-02T09:48:04.404Z,75.68
2018-10-02T09:51:09.616Z,77.38
2018-10-02T09:54:14.185Z,76.65
2018-10-02T09:57:18.600Z,74.21
2018-10-02T10:00:27.097Z,74.89
2018-10-02T10:03:31.508Z,72.29
2018-10-02T10:06:35.902Z,68.92
2018-10-02T10:09:40.317Z,69.08
2018-10-02T10:12:45.237Z,67.42
2018-10-02T10:15:49.713Z,69.59
2018-10-02T10:18:54.208Z,68.38
2018-10-02T10:21:58.644Z,66.80
2018-10-02T10:25:03.159Z,68.61
2018-10-02T10:28:07.757Z,68.45
2018-10-02T10:31:12.523Z,63.93
2018-10-02T10:34:17.026Z,66.87
2018-10-02T10:37:21.345Z,66.89
2018-10-02T10:40:25.746Z,70.65
2018-10-02T10:43:30.233Z,69.90
2018-10-02T10:46:34.834Z,69.67
2018-10-02T10:49:39.638Z,71.46
2018-10-02T10:52:44.888Z,70.71
2018-10-02T10:55:49.143Z,66.34
2018-10-02T10:58:53.864Z,67.91
2018-10-02T11:01:58.393Z,70.23
2018-10-02T11:05:02.839Z,68.04
2018-10-02T11:08:07.153Z,67.01
2018-10-02T11:11:11.449Z,64.30
2018-10-02T11:14:16.832Z,63.30
2018-10-02T11:17:21.356Z,61.16
2018-10-02T11:20:30.253Z,60.89
2018-10-02T11:23:34.759Z,58.87
2018-10-02T11:26:40.281Z,61.52
2018-10-02T11:29:44.690Z,61.40
2018-10-02T11:32:49.139Z,58.55
2018-10-02T11:35:53.453Z,58.10
2018-10-02T11:38:57.772Z,58.43
2018-10-02T11:42:02.084Z,59.16
2018-10-02T11:45:06.539Z,58.50
2018-10-02T11:48:11.139Z,59.00
2018-10-02T11:51:15.570Z,64.13
2018-10-02T11:54:20.013Z,62.09
2018-10-02T11:57:24.374Z,57.70
2018-10-02T12:00:28.752Z,57.04
2018-10-02T12:03:33.083Z,60.01
2018-10-02T12:06:37.418Z,59.67
2018-10-02T12:09:41.906Z,59.57
2018-10-02T12:12:46.236Z,62.92
2018-10-02T12:15:50.535Z,63.48
2018-10-02T12:18:55.509Z,61.84
2018-10-02T12:21:59.969Z,62.74
2018-10-02T12:25:04.309Z,62.42
2018-10-02T12:28:08.808Z,61.41
2018-10-02T12:31:13.251Z,63.12
2018-10-02T12:34:17.672Z,61.86
2018-10-02T12:37:22.309Z,62.16
2018-10-02T12:40:26.708Z,62.60
2018-10-02T12:43:31.207Z,60.72
2018-10-02T12:46:35.888Z,61.09
2018-10-02T12:49:41.015Z,59.81
2018-10-02T12:52:45.876Z,58.19
2018-10-02T12:55:50.167Z,60.72
2018-10-02T12:58:54.594Z,58.04
2018-10-02T13:01:59.083Z,58.28
2018-10-02T13:05:03.723Z,57.90
2018-10-02T13:08:08.119Z,57.32
2018-10-02T13:11:12.816Z,58.24
2018-10-02T13:14:19.595Z,57.53
2018-10-02T13:17:24.069Z,56.19
2018-10-02T13:20:28.833Z,55.95
2018-10-02T13:23:33.929Z,55.82
2018-10-02T13:26:38.436Z,57.59
2018-10-02T13:29:42.838Z,56.94
2018-10-02T13:32:47.226Z,58.69
2018-10-02T13:35:51.589Z,59.41
2018-10-02T13:38:56.086Z,59.20
2018-10-02T13:42:00.675Z,60.65
2018-10-02T13:45:05.465Z,56.72
2018-10-02T13:48:09.785Z,59.01
2018-10-02T13:51:14.132Z,57.50
2018-10-02T13:54:18.515Z,60.29
2018-10-02T13:57:23.099Z,57.58
2018-10-02T14:00:27.664Z,57.55
2018-10-02T14:03:31.969Z,58.85
2018-10-02T14:06:36.350Z,56.43
2018-10-02T14:09:40.909Z,56.69
2018-10-02T14:12:45.288Z,59.02
2018-10-02T14:15:49.592Z,59.36
2018-10-02T14:18:53.994Z,59.49
2018-10-02T14:21:58.393Z,60.65
2018-10-02T14:25:02.797Z,61.82
2018-10-02T14:28:07.198Z,61.00
2018-10-02T14:31:13.278Z,61.42
2018-10-02T14:34:17.732Z,62.79
2018-10-02T14:37:22.127Z,63.21
2018-10-02T14:40:26.520Z,60.13
2018-10-02T14:43:30.898Z,61.85
2018-10-02T14:46:35.208Z,61.03
2018-10-02T14:49:39.691Z,63.22
2018-10-02T14:52:43.877Z,62.70
2018-10-02T14:55:48.233Z,61.45
2018-10-02T14:58:52.622Z,60.63
2018-10-02T15:01:57.025Z,63.50
2018-10-02T15:05:01.535Z,65.18
2018-10-02T15:08:05.880Z,64.97
2018-10-02T15:11:10.480Z,63.51
2018-10-02T15:14:14.801Z,64.51
2018-10-02T15:17:19.245Z,64.24
2018-10-02T15:20:23.624Z,65.21
2018-10-02T15:23:27.954Z,63.99
2018-10-02T15:26:32.260Z,66.49
2018-10-02T15:29:36.699Z,63.53
2018-10-02T15:32:41.020Z,64.13
2018-10-02T15:35:45.338Z,64.36
2018-10-02T15:38:49.754Z,64.79
2018-10-02T15:41:54.070Z,65.20
2018-10-02T15:44:58.456Z,65.58
2018-10-02T15:48:02.955Z,65.61
2018-10-02T15:51:07.339Z,66.18
2018-10-02T15:54:11.685Z,65.33
2018-10-02T15:57:16.071Z,67.94
2018-10-02T16:00:20.542Z,65.95
2018-10-02T16:03:24.973Z,68.99
2018-10-02T16:06:29.330Z,68.14
2018-10-02T16:09:33.917Z,68.35
2018-10-02T16:12:38.315Z,68.04
2018-10-02T16:15:42.602Z,69.26
2018-10-02T16:18:46.978Z,66.63
2018-10-02T16:21:51.341Z,68.84
2018-10-02T16:24:55.911Z,70.24
2018-10-02T16:28:00.256Z,69.31
2018-10-02T16:31:04.664Z,71.17
2018-10-02T16:34:09.008Z,71.32
2018-10-02T16:37:13.417Z,71.58
2018-10-02T16:40:17.861Z,70.28
2018-10-02T16:43:22.258Z,72.23
2018-10-02T16:46:26.559Z,72.76
2018-10-02T16:49:30.881Z,71.64
2018-10-02T16:52:35.227Z,72.51
2018-10-02T16:55:39.517Z,73.37
2018-10-02T16:58:43.800Z,73.54
2018-10-02T17:01:48.088Z,73.64
2018-10-02T17:04:52.381Z,74.83
2018-10-02T17:07:56.681Z,74.33
2018-10-02T17:11:00.976Z,74.33
2018-10-02T17:14:05.330Z,74.66
2018-10-02T17:17:09.668Z,75.58
2018-10-02T17:20:14.032Z,76.25
2018-10-02T17:23:18.432Z,76.46
2018-10-02T17:26:22.722Z,76.24
2018-10-02T17:29:27.124Z,76.37
2018-10-02T17:32:31.526Z,76.52
2018-10-02T17:35:36.119Z,77.93
2018-10-02T17:38:40.466Z,77.75
2018-10-02T17:41:44.753Z,77.63
2018-10-02T17:44:49.057Z,77.29
2018-10-02T17:47:53.360Z,77.89
2018-10-02T17:50:57.716Z,77.73
2018-10-02T17:54:02.173Z,78.74
2018-10-02T17:57:06.534Z,78.52
2018-10-02T18:00:10.836Z,79.37
2018-10-02T18:03:15.518Z,78.86
2018-10-02T18:06:19.832Z,80.00
2018-10-02T18:09:24.146Z,78.73
2018-10-02T18:12:28.464Z,80.30
2018-10-02T18:15:33.238Z,79.46
2018-10-02T18:18:37.624Z,79.89
2018-10-02T18:21:41.970Z,79.37
2018-10-02T18:24:46.502Z,78.82
2018-10-02T18:27:50.909Z,79.23
2018-10-02T18:30:55.220Z,77.97
2018-10-02T18:33:59.597Z,76.96
2018-10-02T18:37:07.924Z,77.11
2018-10-02T18:40:13.768Z,76.03
2018-10-02T18:43:21.546Z,75.97
2018-10-02T18:46:28.769Z,75.68
2018-10-02T18:49:34.992Z,75.91
2018-10-02T18:52:42.845Z,75.24
2018-10-02T18:55:56.075Z,75.05
2018-10-02T18:59:04.799Z,73.77
2018-10-02T19:02:09.641Z,73.82
2018-10-02T19:05:14.109Z,74.23
2018-10-02T19:08:23.908Z,74.05
2018-10-02T19:12:33.260Z,73.73
2018-10-02T19:15:43.115Z,74.73
2018-10-02T19:18:47.482Z,74.52
2018-10-02T19:21:51.807Z,75.90
2018-10-02T19:24:56.449Z,74.49
2018-10-02T19:28:00.836Z,75.42
2018-10-02T19:31:10.353Z,75.95
2018-10-02T19:34:15.020Z,75.76
2018-10-02T19:37:24.999Z,74.88
2018-10-02T19:40:29.625Z,76.12
2018-10-02T19:43:34.630Z,76.27
2018-10-02T19:47:12.422Z,75.46
2018-10-02T19:50:17.340Z,77.08
2018-10-02T19:53:22.121Z,75.58
2018-10-02T19:56:26.670Z,77.05
2018-10-02T19:59:31.204Z,77.19
2018-10-02T20:02:35.621Z,76.98
2018-10-02T20:05:39.973Z,77.28
2018-10-02T20:08:44.927Z,77.09
2018-10-02T20:11:49.328Z,76.78
2018-10-02T20:14:53.820Z,78.28
2018-10-02T20:17:58.006Z,78.84
2018-10-02T20:21:02.385Z,78.43
2018-10-02T20:24:07.228Z,77.74
2018-10-02T20:27:11.875Z,79.54
2018-10-02T20:30:16.257Z,79.57
2018-10-02T20:33:20.998Z,79.29
2018-10-02T20:36:25.336Z,80.28
2018-10-02T20:39:29.681Z,80.31
2018-10-02T20:42:34.063Z,80.87
2018-10-02T20:45:38.915Z,81.77
2018-10-02T20:48:43.348Z,80.79
2018-10-02T20:51:47.928Z,82.82
2018-10-02T20:54:53.837Z,82.74
2018-10-02T20:57:58.812Z,82.32
2018-10-02T21:01:03.905Z,82.37
2018-10-02T21:04:08.450Z,82.71
2018-10-02T21:07:12.847Z,82.43
2018-10-02T21:10:17.259Z,81.65
2018-10-02T21:13:21.839Z,82.44
2018-10-02T21:16:27.198Z,81.30
2018-10-02T21:19:31.753Z,82.08
2018-10-02T21:22:36.165Z,81.97
2018-10-02T21:25:40.589Z,82.07
2018-10-02T21:28:45.139Z,82.30
2018-10-02T21:31:49.567Z,82.08
2018-10-02T21:34:54.345Z,81.88
2018-10-02T21:37:58.877Z,82.68
2018-10-02T21:41:03.391Z,82.78
2018-10-02T21:44:07.913Z,81.55
2018-10-02T21:47:13.918Z,81.45
2018-10-02T21:50:18.478Z,82.58
2018-10-02T21:53:22.901Z,82.67
2018-10-02T21:56:27.769Z,82.83
2018-10-02T21:59:32.093Z,83.76
2018-10-02T22:02:36.641Z,84.80
2018-10-02T22:05:40.964Z,86.67
2018-10-02T22:08:45.797Z,87.74
2018-10-02T22:11:51.030Z,88.78
2018-10-02T22:14:55.491Z,89.31
2018-10-02T22:17:59.808Z,90.25
2018-10-02T22:21:04.874Z,90.24
2018-10-02T22:24:09.425Z,90.09
2018-10-02T22:27:13.764Z,89.63
2018-10-02T22:30:19.519Z,89.85
2018-10-02T22:33:23.925Z,89.18
2018-10-02T22:36:28.314Z,88.63
2018-10-02T22:39:32.679Z,88.96
2018-10-02T22:42:37.738Z,88.78
2018-10-02T22:45:42.403Z,89.32
2018-10-02T22:48:46.726Z,88.77
2018-10-02T22:51:51.055Z,88.61
2018-10-02T22:54:55.723Z,88.09
2018-10-02T22:58:00.280Z,87.46
2018-10-02T23:01:04.876Z,87.66
2018-10-02T23:04:09.642Z,88.17
2018-10-02T23:07:14.105Z,87.78
2018-10-02T23:10:19.244Z,87.82
2018-10-02T23:13:23.635Z,87.75
2018-10-02T23:16:28.134Z,87.87
2018-10-02T23:19:32.704Z,87.20
2018-10-02T23:22:37.072Z,87.37
2018-10-02T23:25:41.653Z,87.44
2018-10-02T23:28:46.662Z,87.19
2018-10-02T23:31:51.147Z,87.58
2018-10-02T23:34:55.755Z,86.55
2018-10-02T23:38:00.117Z,87.89
2018-10-02T23:41:04.505Z,87.31
2018-10-02T23:44:08.909Z,87.59
2018-10-02T23:47:13.313Z,88.27
2018-10-02T23:50:17.633Z,87.30
2018-10-02T23:53:22.084Z,86.99
2018-10-02T23:56:26.932Z,87.63
2018-10-02T23:59:31.327Z,87.87
